sensor_id;sensor_type;location;lat;lon;timestamp;temperature;humidity
22202;DHT22;11266;51.522;6.302;2023-03-31T10:54:23;13.50;99.90
22202;DHT22;11266;51.522;6.302;2023-03-31T10:57:52;13.50;99.90
22202;DHT22;11266;51.522;6.302;2023-03-31T11:04:21;13.70;99.90
22202;DHT22;11266;51.522;6.302;2023-03-31T11:07:53;13.70;99.90
22202;DHT22;11266;51.522;6.302;2023-03-31T11:11:20;13.70;99.90
22202;DHT22;11266;51.522;6.302;2023-03-31T11:12:30;13.70;99.90
22202;DHT22;11266;51.522;6.302;2023-03-31T11:14:53;13.90;99.90
22202;DHT22;11266;51.522;6.302;2023-03-31T11:20:57;13.90;99.90
22202;DHT22;11266;51.522;6.302;2023-03-31T11:25:37;13.80;99.90
22202;DHT22;11266;51.522;6.302;2023-03-31T11:26:28;13.70;99.90
22202;DHT22;11266;51.522;6.302;2023-03-31T11:29:42;14.00;99.90
22202;DHT22;11266;51.522;6.302;2023-03-31T11:37:45;14.10;99.90
22202;DHT22;11266;51.522;6.302;2023-03-31T11:42:08;14.30;99.90
22202;DHT22;11266;51.522;6.302;2023-03-31T11:44:10;14.30;99.90
22202;DHT22;11266;51.522;6.302;2023-03-31T11:45:10;14.30;99.90
22202;DHT22;11266;51.522;6.302;2023-03-31T11:46:19;14.40;99.90
22202;DHT22;11266;51.522;6.302;2023-03-31T11:47:11;14.40;99.90
22202;DHT22;11266;51.522;6.302;2023-03-31T11:48:03;14.40;99.90
22202;DHT22;11266;51.522;6.302;2023-03-31T11:48:57;14.40;99.90
22202;DHT22;11266;51.522;6.302;2023-03-31T11:49:55;14.50;99.90
22202;DHT22;11266;51.522;6.302;2023-03-31T11:50:44;14.50;99.90
22202;DHT22;11266;51.522;6.302;2023-03-31T11:52:32;14.40;99.90
22202;DHT22;11266;51.522;6.302;2023-03-31T11:53:24;14.50;99.90
22202;DHT22;11266;51.522;6.302;2023-03-31T11:54:19;14.50;99.90
22202;DHT22;11266;51.522;6.302;2023-03-31T11:55:17;14.50;99.90
22202;DHT22;11266;51.522;6.302;2023-03-31T11:56:09;14.50;99.90
22202;DHT22;11266;51.522;6.302;2023-03-31T11:56:55;14.60;99.90
22202;DHT22;11266;51.522;6.302;2023-03-31T11:58:36;14.60;99.90
22202;DHT22;11266;51.522;6.302;2023-03-31T11:59:26;14.50;99.90
22202;DHT22;11266;51.522;6.302;2023-03-31T12:00:20;14.50;99.90
22202;DHT22;11266;51.522;6.302;2023-03-31T12:01:31;14.40;99.90
22202;DHT22;11266;51.522;6.302;2023-03-31T12:04:57;14.40;99.90
22202;DHT22;11266;51.522;6.302;2023-03-31T12:06:13;14.40;99.90
22202;DHT22;11266;51.522;6.302;2023-03-31T12:09:29;14.40;99.90
22202;DHT22;11266;51.522;6.302;2023-03-31T12:10:21;14.40;99.90
22202;DHT22;11266;51.522;6.302;2023-03-31T12:11:18;14.40;99.90
22202;DHT22;11266;51.522;6.302;2023-03-31T12:12:14;14.40;99.90
22202;DHT22;11266;51.522;6.302;2023-03-31T12:16:03;14.50;99.90
22202;DHT22;11266;51.522;6.302;2023-03-31T12:16:57;14.40;99.90
22202;DHT22;11266;51.522;6.302;2023-03-31T12:17:48;14.40;99.90
22202;DHT22;11266;51.522;6.302;2023-03-31T12:19:54;14.40;99.90
22202;DHT22;11266;51.522;6.302;2023-03-31T12:20:47;14.40;99.90
22202;DHT22;11266;51.522;6.302;2023-03-31T12:21:34;14.40;99.90
22202;DHT22;11266;51.522;6.302;2023-03-31T12:22:31;14.40;99.90
22202;DHT22;11266;51.522;6.302;2023-03-31T12:23:26;14.40;99.90
22202;DHT22;11266;51.522;6.302;2023-03-31T12:24:15;14.40;99.90
22202;DHT22;11266;51.522;6.302;2023-03-31T12:25:01;14.50;99.90
22202;DHT22;11266;51.522;6.302;2023-03-31T12:26:46;14.50;99.90
22202;DHT22;11266;51.522;6.302;2023-03-31T12:27:40;14.50;99.90
22202;DHT22;11266;51.522;6.302;2023-03-31T12:28:27;14.50;99.90
22202;DHT22;11266;51.522;6.302;2023-03-31T12:30:35;14.60;99.90
22202;DHT22;11266;51.522;6.302;2023-03-31T12:31:27;14.60;99.90
22202;DHT22;11266;51.522;6.302;2023-03-31T12:32:18;14.70;99.90
22202;DHT22;11266;51.522;6.302;2023-03-31T12:33:25;14.70;99.90
22202;DHT22;11266;51.522;6.302;2023-03-31T12:34:14;14.70;99.90
22202;DHT22;11266;51.522;6.302;2023-03-31T12:45:35;15.00;99.90
22202;DHT22;11266;51.522;6.302;2023-03-31T12:57:01;14.80;99.90
22202;DHT22;11266;51.522;6.302;2023-03-31T12:57:47;14.70;99.90
22202;DHT22;11266;51.522;6.302;2023-03-31T12:58:41;14.70;99.90
22202;DHT22;11266;51.522;6.302;2023-03-31T12:59:37;14.60;99.90
22202;DHT22;11266;51.522;6.302;2023-03-31T13:00:25;14.60;99.90
22202;DHT22;11266;51.522;6.302;2023-03-31T13:04:26;14.60;99.90
22202;DHT22;11266;51.522;6.302;2023-03-31T13:07:34;14.50;99.90
22202;DHT22;11266;51.522;6.302;2023-03-31T13:08:50;14.50;99.90
22202;DHT22;11266;51.522;6.302;2023-03-31T13:09:44;14.50;99.90
22202;DHT22;11266;51.522;6.302;2023-03-31T13:10:59;14.50;99.90
22202;DHT22;11266;51.522;6.302;2023-03-31T13:11:45;14.60;99.90
22202;DHT22;11266;51.522;6.302;2023-03-31T13:12:34;14.60;99.90
22202;DHT22;11266;51.522;6.302;2023-03-31T13:13:20;14.60;99.90
22202;DHT22;11266;51.522;6.302;2023-03-31T13:14:19;14.60;99.90
22202;DHT22;11266;51.522;6.302;2023-03-31T13:15:12;14.70;99.90
22202;DHT22;11266;51.522;6.302;2023-03-31T13:16:00;14.70;99.90
22202;DHT22;11266;51.522;6.302;2023-03-31T13:16:51;14.70;99.90
22202;DHT22;11266;51.522;6.302;2023-03-31T13:17:56;14.80;99.90
22202;DHT22;11266;51.522;6.302;2023-03-31T13:18:50;14.90;99.90
22202;DHT22;11266;51.522;6.302;2023-03-31T13:19:39;14.90;99.90
22202;DHT22;11266;51.522;6.302;2023-03-31T13:20:36;15.00;99.90
22202;DHT22;11266;51.522;6.302;2023-03-31T13:21:23;15.00;99.90
22202;DHT22;11266;51.522;6.302;2023-03-31T13:23:22;15.00;99.90
22202;DHT22;11266;51.522;6.302;2023-03-31T13:24:11;15.10;99.90
22202;DHT22;11266;51.522;6.302;2023-03-31T13:27:32;15.20;99.90
22202;DHT22;11266;51.522;6.302;2023-03-31T13:29:58;15.20;99.90
22202;DHT22;11266;51.522;6.302;2023-03-31T13:30:46;15.20;99.90
22202;DHT22;11266;51.522;6.302;2023-03-31T13:34:07;15.10;99.90
22202;DHT22;11266;51.522;6.302;2023-03-31T13:35:05;15.10;99.90
22202;DHT22;11266;51.522;6.302;2023-03-31T13:36:01;15.00;99.90
22202;DHT22;11266;51.522;6.302;2023-03-31T13:39:50;14.90;99.90
22202;DHT22;11266;51.522;6.302;2023-03-31T13:47:43;14.70;99.90
22202;DHT22;11266;51.522;6.302;2023-03-31T13:50:07;14.70;99.90
22202;DHT22;11266;51.522;6.302;2023-03-31T13:54:22;14.70;99.90
22202;DHT22;11266;51.522;6.302;2023-03-31T13:55:42;14.60;99.90
22202;DHT22;11266;51.522;6.302;2023-03-31T14:04:27;13.90;99.90
22202;DHT22;11266;51.522;6.302;2023-03-31T14:07:37;13.70;99.90
22202;DHT22;11266;51.522;6.302;2023-03-31T14:09:36;13.70;99.90
22202;DHT22;11266;51.522;6.302;2023-03-31T14:10:34;13.80;99.90
22202;DHT22;11266;51.522;6.302;2023-03-31T14:11:29;13.90;99.90
22202;DHT22;11266;51.522;6.302;2023-03-31T14:12:28;13.90;99.90
22202;DHT22;11266;51.522;6.302;2023-03-31T14:13:17;13.90;99.90
22202;DHT22;11266;51.522;6.302;2023-03-31T14:14:14;13.90;99.90
22202;DHT22;11266;51.522;6.302;2023-03-31T14:15:01;14.00;99.90
22202;DHT22;11266;51.522;6.302;2023-03-31T14:15:57;13.90;99.90
22202;DHT22;11266;51.522;6.302;2023-03-31T14:16:55;14.00;99.90
22202;DHT22;11266;51.522;6.302;2023-03-31T14:17:42;14.00;99.90
22202;DHT22;11266;51.522;6.302;2023-03-31T14:18:31;14.00;99.90
22202;DHT22;11266;51.522;6.302;2023-03-31T14:19:43;14.00;99.90
22202;DHT22;11266;51.522;6.302;2023-03-31T14:24:33;14.10;99.90
22202;DHT22;11266;51.522;6.302;2023-03-31T14:29:18;14.10;99.90
22202;DHT22;11266;51.522;6.302;2023-03-31T14:30:22;14.10;99.90
22202;DHT22;11266;51.522;6.302;2023-03-31T14:32:12;14.00;99.90
22202;DHT22;11266;51.522;6.302;2023-03-31T14:34:15;14.10;99.90
22202;DHT22;11266;51.522;6.302;2023-03-31T14:35:27;14.10;99.90
22202;DHT22;11266;51.522;6.302;2023-03-31T14:37:12;14.20;99.90
22202;DHT22;11266;51.522;6.302;2023-03-31T14:37:59;14.30;99.90
22202;DHT22;11266;51.522;6.302;2023-03-31T14:38:47;14.20;99.90
22202;DHT22;11266;51.522;6.302;2023-03-31T14:39:47;14.20;99.90
22202;DHT22;11266;51.522;6.302;2023-03-31T14:40:42;14.10;99.90
22202;DHT22;11266;51.522;6.302;2023-03-31T14:41:29;14.10;99.90
22202;DHT22;11266;51.522;6.302;2023-03-31T14:42:18;14.10;99.90
22202;DHT22;11266;51.522;6.302;2023-03-31T14:43:19;14.00;99.90
22202;DHT22;11266;51.522;6.302;2023-03-31T14:44:06;14.10;99.90
22202;DHT22;11266;51.522;6.302;2023-03-31T14:45:01;14.00;99.90
22202;DHT22;11266;51.522;6.302;2023-03-31T14:46:04;14.00;99.90
22202;DHT22;11266;51.522;6.302;2023-03-31T14:46:51;13.90;99.90
22202;DHT22;11266;51.522;6.302;2023-03-31T14:47:37;13.90;99.90
22202;DHT22;11266;51.522;6.302;2023-03-31T14:48:22;13.80;99.90
22202;DHT22;11266;51.522;6.302;2023-03-31T14:49:20;13.80;99.90
22202;DHT22;11266;51.522;6.302;2023-03-31T14:50:14;13.80;99.90
22202;DHT22;11266;51.522;6.302;2023-03-31T14:51:02;13.80;99.90
22202;DHT22;11266;51.522;6.302;2023-03-31T14:51:51;13.80;99.90
22202;DHT22;11266;51.522;6.302;2023-03-31T14:52:37;13.90;99.90
22202;DHT22;11266;51.522;6.302;2023-03-31T14:53:25;14.00;99.90
22202;DHT22;11266;51.522;6.302;2023-03-31T14:54:18;13.90;99.90
22202;DHT22;11266;51.522;6.302;2023-03-31T14:55:16;13.90;99.90
22202;DHT22;11266;51.522;6.302;2023-03-31T14:56:06;13.90;99.90
22202;DHT22;11266;51.522;6.302;2023-03-31T14:56:54;13.80;99.90
22202;DHT22;11266;51.522;6.302;2023-03-31T14:57:46;13.80;99.90
22202;DHT22;11266;51.522;6.302;2023-03-31T14:58:35;13.80;99.90
22202;DHT22;11266;51.522;6.302;2023-03-31T14:59:27;13.80;99.90
22202;DHT22;11266;51.522;6.302;2023-03-31T15:00:28;13.80;99.90
22202;DHT22;11266;51.522;6.302;2023-03-31T15:01:18;13.90;99.90
22202;DHT22;11266;51.522;6.302;2023-03-31T15:02:19;13.90;99.90
22202;DHT22;11266;51.522;6.302;2023-03-31T15:03:12;13.90;99.90
22202;DHT22;11266;51.522;6.302;2023-03-31T15:03:59;13.90;99.90
22202;DHT22;11266;51.522;6.302;2023-03-31T15:04:48;13.90;99.90
22202;DHT22;11266;51.522;6.302;2023-03-31T15:05:37;14.20;99.90
22202;DHT22;11266;51.522;6.302;2023-03-31T15:06:24;14.20;99.90
22202;DHT22;11266;51.522;6.302;2023-03-31T15:07:11;14.10;99.90
22202;DHT22;11266;51.522;6.302;2023-03-31T15:08:02;14.00;99.90
22202;DHT22;11266;51.522;6.302;2023-03-31T15:08:48;14.00;99.90
22202;DHT22;11266;51.522;6.302;2023-03-31T15:09:35;14.10;99.90
22202;DHT22;11266;51.522;6.302;2023-03-31T15:10:21;14.10;99.90
22202;DHT22;11266;51.522;6.302;2023-03-31T15:11:15;14.10;99.90
22202;DHT22;11266;51.522;6.302;2023-03-31T15:12:07;14.10;99.90
22202;DHT22;11266;51.522;6.302;2023-03-31T15:13:01;14.10;99.90
22202;DHT22;11266;51.522;6.302;2023-03-31T15:13:52;14.10;99.90
22202;DHT22;11266;51.522;6.302;2023-03-31T15:14:49;14.10;99.90
22202;DHT22;11266;51.522;6.302;2023-03-31T15:15:35;14.20;99.90
22202;DHT22;11266;51.522;6.302;2023-03-31T15:16:37;14.10;99.90
22202;DHT22;11266;51.522;6.302;2023-03-31T15:17:29;14.10;99.90
22202;DHT22;11266;51.522;6.302;2023-03-31T15:18:17;14.00;99.90
22202;DHT22;11266;51.522;6.302;2023-03-31T15:19:21;14.00;99.90
22202;DHT22;11266;51.522;6.302;2023-03-31T15:21:20;13.80;99.90
22202;DHT22;11266;51.522;6.302;2023-03-31T15:22:16;13.90;99.90
22202;DHT22;11266;51.522;6.302;2023-03-31T15:23:17;13.90;99.90
22202;DHT22;11266;51.522;6.302;2023-03-31T15:24:12;13.90;99.90
22202;DHT22;11266;51.522;6.302;2023-03-31T15:25:03;13.90;99.90
22202;DHT22;11266;51.522;6.302;2023-03-31T15:25:56;13.80;99.90
22202;DHT22;11266;51.522;6.302;2023-03-31T15:27:09;13.80;99.90
22202;DHT22;11266;51.522;6.302;2023-03-31T15:28:03;13.80;99.90
22202;DHT22;11266;51.522;6.302;2023-03-31T15:28:57;13.80;99.90
22202;DHT22;11266;51.522;6.302;2023-03-31T15:29:49;13.80;99.90
22202;DHT22;11266;51.522;6.302;2023-03-31T15:30:36;13.80;99.90
22202;DHT22;11266;51.522;6.302;2023-03-31T15:31:22;13.70;99.90
22202;DHT22;11266;51.522;6.302;2023-03-31T15:32:27;13.80;99.90
22202;DHT22;11266;51.522;6.302;2023-03-31T15:33:23;13.80;99.90
22202;DHT22;11266;51.522;6.302;2023-03-31T15:34:31;13.80;99.90
22202;DHT22;11266;51.522;6.302;2023-03-31T15:35:33;13.90;99.90
22202;DHT22;11266;51.522;6.302;2023-03-31T15:36:20;13.80;99.90
22202;DHT22;11266;51.522;6.302;2023-03-31T15:37:06;13.80;99.90
22202;DHT22;11266;51.522;6.302;2023-03-31T15:37:57;13.80;99.90
22202;DHT22;11266;51.522;6.302;2023-03-31T15:38:54;13.70;99.90
22202;DHT22;11266;51.522;6.302;2023-03-31T15:39:44;13.60;99.90
22202;DHT22;11266;51.522;6.302;2023-03-31T15:41:17;13.60;99.90
22202;DHT22;11266;51.522;6.302;2023-03-31T15:42:04;13.60;99.90
22202;DHT22;11266;51.522;6.302;2023-03-31T15:42:58;13.60;99.90
22202;DHT22;11266;51.522;6.302;2023-03-31T15:44:02;13.50;99.90
22202;DHT22;11266;51.522;6.302;2023-03-31T15:45:52;13.60;99.90
22202;DHT22;11266;51.522;6.302;2023-03-31T15:47:28;13.60;99.90
22202;DHT22;11266;51.522;6.302;2023-03-31T15:50:46;13.40;99.90
22202;DHT22;11266;51.522;6.302;2023-03-31T15:51:39;13.30;99.90
22202;DHT22;11266;51.522;6.302;2023-03-31T15:52:29;13.30;99.90
22202;DHT22;11266;51.522;6.302;2023-03-31T15:53:44;13.20;99.90
22202;DHT22;11266;51.522;6.302;2023-03-31T15:54:33;13.20;99.90
22202;DHT22;11266;51.522;6.302;2023-03-31T15:55:32;13.20;99.90
22202;DHT22;11266;51.522;6.302;2023-03-31T15:56:31;13.10;99.90
22202;DHT22;11266;51.522;6.302;2023-03-31T15:57:30;13.00;99.90
22202;DHT22;11266;51.522;6.302;2023-03-31T15:58:16;13.00;99.90
22202;DHT22;11266;51.522;6.302;2023-03-31T15:59:27;13.00;99.90
22202;DHT22;11266;51.522;6.302;2023-03-31T16:01:36;12.90;99.90
22202;DHT22;11266;51.522;6.302;2023-03-31T16:02:26;12.90;99.90
22202;DHT22;11266;51.522;6.302;2023-03-31T16:03:35;12.90;99.90
22202;DHT22;11266;51.522;6.302;2023-03-31T16:04:26;12.90;99.90
22202;DHT22;11266;51.522;6.302;2023-03-31T16:05:40;12.90;99.90
22202;DHT22;11266;51.522;6.302;2023-03-31T16:06:35;12.80;99.90
22202;DHT22;11266;51.522;6.302;2023-03-31T16:07:26;12.80;99.90
22202;DHT22;11266;51.522;6.302;2023-03-31T16:08:21;12.80;99.90
22202;DHT22;11266;51.522;6.302;2023-03-31T16:09:23;12.80;99.90
22202;DHT22;11266;51.522;6.302;2023-03-31T16:10:18;12.80;99.90
22202;DHT22;11266;51.522;6.302;2023-03-31T16:11:10;12.70;99.90
22202;DHT22;11266;51.522;6.302;2023-03-31T16:12:00;12.80;99.90
22202;DHT22;11266;51.522;6.302;2023-03-31T16:12:54;12.70;99.90
22202;DHT22;11266;51.522;6.302;2023-03-31T16:13:47;12.70;99.90
22202;DHT22;11266;51.522;6.302;2023-03-31T16:14:41;12.70;99.90
22202;DHT22;11266;51.522;6.302;2023-03-31T16:15:39;12.70;99.90
22202;DHT22;11266;51.522;6.302;2023-03-31T16:16:27;12.70;99.90
22202;DHT22;11266;51.522;6.302;2023-03-31T16:17:45;12.70;99.90
22202;DHT22;11266;51.522;6.302;2023-03-31T16:18:34;12.70;99.90
22202;DHT22;11266;51.522;6.302;2023-03-31T16:19:23;12.70;99.90
22202;DHT22;11266;51.522;6.302;2023-03-31T16:20:24;12.60;99.90
22202;DHT22;11266;51.522;6.302;2023-03-31T16:21:11;12.70;99.90
22202;DHT22;11266;51.522;6.302;2023-03-31T16:22:03;12.70;99.90
22202;DHT22;11266;51.522;6.302;2023-03-31T16:22:52;12.60;99.90
22202;DHT22;11266;51.522;6.302;2023-03-31T16:23:39;12.60;99.90
22202;DHT22;11266;51.522;6.302;2023-03-31T16:24:33;12.60;99.90
22202;DHT22;11266;51.522;6.302;2023-03-31T16:25:24;12.60;99.90
22202;DHT22;11266;51.522;6.302;2023-03-31T16:26:11;12.70;99.90
22202;DHT22;11266;51.522;6.302;2023-03-31T16:27:19;12.60;99.90
22202;DHT22;11266;51.522;6.302;2023-03-31T16:28:16;12.70;99.90
22202;DHT22;11266;51.522;6.302;2023-03-31T16:29:06;12.80;99.90
22202;DHT22;11266;51.522;6.302;2023-03-31T16:30:15;12.70;99.90
22202;DHT22;11266;51.522;6.302;2023-03-31T16:31:04;12.70;99.90
22202;DHT22;11266;51.522;6.302;2023-03-31T16:32:15;12.70;99.90
22202;DHT22;11266;51.522;6.302;2023-03-31T16:33:18;12.60;99.90
22202;DHT22;11266;51.522;6.302;2023-03-31T16:34:10;12.50;99.90
22202;DHT22;11266;51.522;6.302;2023-03-31T16:35:00;12.50;99.90
22202;DHT22;11266;51.522;6.302;2023-03-31T16:35:49;12.60;99.90
22202;DHT22;11266;51.522;6.302;2023-03-31T16:36:40;12.60;99.90
22202;DHT22;11266;51.522;6.302;2023-03-31T16:37:30;12.60;99.90
22202;DHT22;11266;51.522;6.302;2023-03-31T16:38:16;12.60;99.90
22202;DHT22;11266;51.522;6.302;2023-03-31T16:39:03;12.50;99.90
22202;DHT22;11266;51.522;6.302;2023-03-31T16:39:49;12.50;99.90
22202;DHT22;11266;51.522;6.302;2023-03-31T16:40:40;12.50;99.90
22202;DHT22;11266;51.522;6.302;2023-03-31T16:41:30;12.60;99.90
22202;DHT22;11266;51.522;6.302;2023-03-31T16:42:16;12.60;99.90
22202;DHT22;11266;51.522;6.302;2023-03-31T16:43:06;12.50;99.90
22202;DHT22;11266;51.522;6.302;2023-03-31T16:43:52;12.40;99.90
22202;DHT22;11266;51.522;6.302;2023-03-31T16:44:40;12.40;99.90
22202;DHT22;11266;51.522;6.302;2023-03-31T16:45:26;12.40;99.90
22202;DHT22;11266;51.522;6.302;2023-03-31T16:46:13;12.40;99.90
22202;DHT22;11266;51.522;6.302;2023-03-31T16:46:58;12.40;99.90
22202;DHT22;11266;51.522;6.302;2023-03-31T16:47:47;12.40;99.90
22202;DHT22;11266;51.522;6.302;2023-03-31T16:48:33;12.40;99.90
22202;DHT22;11266;51.522;6.302;2023-03-31T16:49:21;12.40;99.90
22202;DHT22;11266;51.522;6.302;2023-03-31T16:50:07;12.50;99.90
22202;DHT22;11266;51.522;6.302;2023-03-31T16:50:58;12.50;99.90
22202;DHT22;11266;51.522;6.302;2023-03-31T16:51:46;12.40;99.90
22202;DHT22;11266;51.522;6.302;2023-03-31T16:52:32;12.40;99.90
22202;DHT22;11266;51.522;6.302;2023-03-31T16:53:20;12.50;99.90
22202;DHT22;11266;51.522;6.302;2023-03-31T16:54:06;12.50;99.90
22202;DHT22;11266;51.522;6.302;2023-03-31T16:54:52;12.50;99.90
22202;DHT22;11266;51.522;6.302;2023-03-31T16:55:37;12.40;99.90
22202;DHT22;11266;51.522;6.302;2023-03-31T16:56:23;12.40;99.90
22202;DHT22;11266;51.522;6.302;2023-03-31T16:57:09;12.30;99.90
22202;DHT22;11266;51.522;6.302;2023-03-31T16:57:54;12.30;99.90
22202;DHT22;11266;51.522;6.302;2023-03-31T16:58:42;12.30;99.90
22202;DHT22;11266;51.522;6.302;2023-03-31T16:59:28;12.30;99.90
22202;DHT22;11266;51.522;6.302;2023-03-31T17:00:16;12.30;99.90
22202;DHT22;11266;51.522;6.302;2023-03-31T17:01:03;12.40;99.90
22202;DHT22;11266;51.522;6.302;2023-03-31T17:01:49;12.30;99.90
22202;DHT22;11266;51.522;6.302;2023-03-31T17:02:36;12.40;99.90
22202;DHT22;11266;51.522;6.302;2023-03-31T17:03:23;12.40;99.90
22202;DHT22;11266;51.522;6.302;2023-03-31T17:04:10;12.40;99.90
22202;DHT22;11266;51.522;6.302;2023-03-31T17:04:56;12.30;99.90
22202;DHT22;11266;51.522;6.302;2023-03-31T17:05:45;12.30;99.90
22202;DHT22;11266;51.522;6.302;2023-03-31T17:06:30;12.20;99.90
22202;DHT22;11266;51.522;6.302;2023-03-31T17:07:16;12.20;99.90
22202;DHT22;11266;51.522;6.302;2023-03-31T17:08:02;12.20;99.90
22202;DHT22;11266;51.522;6.302;2023-03-31T17:08:47;12.20;99.90
22202;DHT22;11266;51.522;6.302;2023-03-31T17:09:33;12.30;99.90
22202;DHT22;11266;51.522;6.302;2023-03-31T17:10:21;12.30;99.90
22202;DHT22;11266;51.522;6.302;2023-03-31T17:11:10;12.30;99.90
22202;DHT22;11266;51.522;6.302;2023-03-31T17:11:56;12.30;99.90
22202;DHT22;11266;51.522;6.302;2023-03-31T17:12:42;12.30;99.90
22202;DHT22;11266;51.522;6.302;2023-03-31T17:13:30;12.20;99.90
22202;DHT22;11266;51.522;6.302;2023-03-31T17:14:18;12.20;99.90
22202;DHT22;11266;51.522;6.302;2023-03-31T17:15:04;12.20;99.90
22202;DHT22;11266;51.522;6.302;2023-03-31T17:15:51;12.10;99.90
22202;DHT22;11266;51.522;6.302;2023-03-31T17:16:38;12.10;99.90
22202;DHT22;11266;51.522;6.302;2023-03-31T17:17:23;12.10;99.90
22202;DHT22;11266;51.522;6.302;2023-03-31T17:18:09;12.10;99.90
22202;DHT22;11266;51.522;6.302;2023-03-31T17:19:03;12.10;99.90
22202;DHT22;11266;51.522;6.302;2023-03-31T17:19:48;12.10;99.90
22202;DHT22;11266;51.522;6.302;2023-03-31T17:20:34;12.10;99.90
22202;DHT22;11266;51.522;6.302;2023-03-31T17:21:20;12.10;99.90
22202;DHT22;11266;51.522;6.302;2023-03-31T17:22:07;12.10;99.90
22202;DHT22;11266;51.522;6.302;2023-03-31T17:22:52;12.10;99.90
22202;DHT22;11266;51.522;6.302;2023-03-31T17:23:39;12.10;99.90
22202;DHT22;11266;51.522;6.302;2023-03-31T17:24:25;12.10;99.90
22202;DHT22;11266;51.522;6.302;2023-03-31T17:25:13;12.10;99.90
22202;DHT22;11266;51.522;6.302;2023-03-31T17:25:58;12.00;99.90
22202;DHT22;11266;51.522;6.302;2023-03-31T17:26:44;12.00;99.90
22202;DHT22;11266;51.522;6.302;2023-03-31T17:27:34;12.00;99.90
22202;DHT22;11266;51.522;6.302;2023-03-31T17:28:20;12.20;99.90
22202;DHT22;11266;51.522;6.302;2023-03-31T17:29:05;12.10;99.90
22202;DHT22;11266;51.522;6.302;2023-03-31T17:29:51;12.00;99.90
22202;DHT22;11266;51.522;6.302;2023-03-31T17:30:37;12.00;99.90
22202;DHT22;11266;51.522;6.302;2023-03-31T17:31:28;11.90;99.90
22202;DHT22;11266;51.522;6.302;2023-03-31T17:32:16;11.90;99.90
22202;DHT22;11266;51.522;6.302;2023-03-31T17:33:02;11.90;99.90
22202;DHT22;11266;51.522;6.302;2023-03-31T17:33:48;11.90;99.90
22202;DHT22;11266;51.522;6.302;2023-03-31T17:34:34;11.90;99.90
22202;DHT22;11266;51.522;6.302;2023-03-31T17:35:20;11.80;99.90
22202;DHT22;11266;51.522;6.302;2023-03-31T17:36:06;11.80;99.90
22202;DHT22;11266;51.522;6.302;2023-03-31T17:36:52;11.80;99.90
22202;DHT22;11266;51.522;6.302;2023-03-31T17:37:39;11.70;99.90
22202;DHT22;11266;51.522;6.302;2023-03-31T17:38:25;11.70;99.90
22202;DHT22;11266;51.522;6.302;2023-03-31T17:39:13;11.80;99.90
22202;DHT22;11266;51.522;6.302;2023-03-31T17:39:59;11.80;99.90
22202;DHT22;11266;51.522;6.302;2023-03-31T17:40:44;11.90;99.90
22202;DHT22;11266;51.522;6.302;2023-03-31T17:41:31;11.90;99.90
22202;DHT22;11266;51.522;6.302;2023-03-31T17:42:17;11.80;99.90
22202;DHT22;11266;51.522;6.302;2023-03-31T17:43:05;11.80;99.90
22202;DHT22;11266;51.522;6.302;2023-03-31T17:43:54;11.80;99.90
22202;DHT22;11266;51.522;6.302;2023-03-31T17:44:39;11.90;99.90
22202;DHT22;11266;51.522;6.302;2023-03-31T17:45:25;11.80;99.90
22202;DHT22;11266;51.522;6.302;2023-03-31T17:46:11;11.70;99.90
22202;DHT22;11266;51.522;6.302;2023-03-31T17:46:59;11.80;99.90
22202;DHT22;11266;51.522;6.302;2023-03-31T17:47:48;11.80;99.90
22202;DHT22;11266;51.522;6.302;2023-03-31T17:48:34;11.80;99.90
22202;DHT22;11266;51.522;6.302;2023-03-31T17:49:19;11.80;99.90
22202;DHT22;11266;51.522;6.302;2023-03-31T17:50:06;11.80;99.90
22202;DHT22;11266;51.522;6.302;2023-03-31T17:50:53;11.70;99.90
22202;DHT22;11266;51.522;6.302;2023-03-31T17:51:47;11.70;99.90
22202;DHT22;11266;51.522;6.302;2023-03-31T17:52:34;11.60;99.90
22202;DHT22;11266;51.522;6.302;2023-03-31T17:53:20;11.70;99.90
22202;DHT22;11266;51.522;6.302;2023-03-31T17:54:05;11.70;99.90
22202;DHT22;11266;51.522;6.302;2023-03-31T17:54:51;11.70;99.90
22202;DHT22;11266;51.522;6.302;2023-03-31T17:55:37;11.60;99.90
22202;DHT22;11266;51.522;6.302;2023-03-31T17:56:25;11.70;99.90
22202;DHT22;11266;51.522;6.302;2023-03-31T17:57:13;11.70;99.90
22202;DHT22;11266;51.522;6.302;2023-03-31T17:57:59;11.60;99.90
22202;DHT22;11266;51.522;6.302;2023-03-31T17:58:45;11.60;99.90
22202;DHT22;11266;51.522;6.302;2023-03-31T17:59:31;11.70;99.90
22202;DHT22;11266;51.522;6.302;2023-03-31T18:00:17;11.60;99.90
22202;DHT22;11266;51.522;6.302;2023-03-31T18:01:05;11.60;99.90
22202;DHT22;11266;51.522;6.302;2023-03-31T18:01:51;11.60;99.90
22202;DHT22;11266;51.522;6.302;2023-03-31T18:02:40;11.70;99.90
22202;DHT22;11266;51.522;6.302;2023-03-31T18:03:29;11.60;99.90
22202;DHT22;11266;51.522;6.302;2023-03-31T18:04:15;11.60;99.90
22202;DHT22;11266;51.522;6.302;2023-03-31T18:05:01;11.60;99.90
22202;DHT22;11266;51.522;6.302;2023-03-31T18:05:47;11.60;99.90
22202;DHT22;11266;51.522;6.302;2023-03-31T18:06:33;11.50;99.90
22202;DHT22;11266;51.522;6.302;2023-03-31T18:07:19;11.50;99.90
22202;DHT22;11266;51.522;6.302;2023-03-31T18:08:07;11.50;99.90
22202;DHT22;11266;51.522;6.302;2023-03-31T18:08:54;11.40;99.90
22202;DHT22;11266;51.522;6.302;2023-03-31T18:09:41;11.40;99.90
22202;DHT22;11266;51.522;6.302;2023-03-31T18:10:27;11.40;99.90
22202;DHT22;11266;51.522;6.302;2023-03-31T18:11:12;11.40;99.90
22202;DHT22;11266;51.522;6.302;2023-03-31T18:11:59;11.40;99.90
22202;DHT22;11266;51.522;6.302;2023-03-31T18:12:44;11.40;99.90
22202;DHT22;11266;51.522;6.302;2023-03-31T18:13:32;11.30;99.90
22202;DHT22;11266;51.522;6.302;2023-03-31T18:14:19;11.40;99.90
22202;DHT22;11266;51.522;6.302;2023-03-31T18:15:05;11.40;99.90
22202;DHT22;11266;51.522;6.302;2023-03-31T18:15:51;11.40;99.90
22202;DHT22;11266;51.522;6.302;2023-03-31T18:16:37;11.40;99.90
22202;DHT22;11266;51.522;6.302;2023-03-31T18:17:23;11.40;99.90
22202;DHT22;11266;51.522;6.302;2023-03-31T18:18:09;11.30;99.90
22202;DHT22;11266;51.522;6.302;2023-03-31T18:18:54;11.40;99.90
22202;DHT22;11266;51.522;6.302;2023-03-31T18:19:41;11.40;99.90
22202;DHT22;11266;51.522;6.302;2023-03-31T18:20:27;11.50;99.90
22202;DHT22;11266;51.522;6.302;2023-03-31T18:21:15;11.40;99.90
22202;DHT22;11266;51.522;6.302;2023-03-31T18:22:00;11.50;99.90
22202;DHT22;11266;51.522;6.302;2023-03-31T18:22:46;11.40;99.90
22202;DHT22;11266;51.522;6.302;2023-03-31T18:23:32;11.50;99.90
22202;DHT22;11266;51.522;6.302;2023-03-31T18:24:19;11.40;99.90
22202;DHT22;11266;51.522;6.302;2023-03-31T18:25:05;11.40;99.90
22202;DHT22;11266;51.522;6.302;2023-03-31T18:25:53;11.30;99.90
22202;DHT22;11266;51.522;6.302;2023-03-31T18:26:38;11.30;99.90
22202;DHT22;11266;51.522;6.302;2023-03-31T18:27:26;11.30;99.90